createdAt,value
2022-11-27T00:00:41.121Z,12.29
2022-11-27T00:02:12.382Z,13.77
2022-11-27T00:03:43.950Z,13.29
2022-11-27T00:05:15.422Z,12.75
2022-11-27T00:06:46.766Z,10.41
2022-11-27T00:08:28.085Z,13.54
2022-11-27T00:10:16.885Z,11.49
2022-11-27T00:11:48.546Z,10.67
2022-11-27T00:13:19.819Z,12.07
2022-11-27T00:14:54.727Z,11.81
2022-11-27T00:16:26.990Z,15.08
2022-11-27T00:17:58.477Z,11.19
2022-11-27T00:19:29.824Z,9.72
2022-11-27T00:21:01.321Z,12.52
2022-11-27T00:22:32.728Z,12.10
2022-11-27T00:24:04.154Z,13.22
2022-11-27T00:25:40.377Z,10.56
2022-11-27T00:27:11.683Z,11.18
2022-11-27T00:28:42.995Z,13.23
2022-11-27T00:30:14.296Z,14.28
2022-11-27T00:31:45.737Z,12.07
2022-11-27T00:33:17.072Z,12.06
2022-11-27T00:34:48.408Z,11.47
2022-11-27T00:36:20.467Z,12.27
2022-11-27T00:37:51.915Z,12.88
2022-11-27T00:39:33.385Z,10.54
2022-11-27T00:41:09.639Z,12.88
2022-11-27T00:42:40.979Z,11.48
2022-11-27T00:44:12.236Z,9.60
2022-11-27T00:45:43.559Z,11.49
2022-11-27T00:47:14.819Z,11.51
2022-11-27T00:48:46.180Z,12.53
2022-11-27T00:50:17.521Z,10.52
2022-11-27T00:51:48.746Z,10.58
2022-11-27T00:53:20.030Z,10.24
2022-11-27T00:54:51.480Z,9.76
2022-11-27T00:56:22.783Z,11.07
2022-11-27T00:57:54.048Z,10.10
2022-11-27T00:59:25.438Z,11.06
2022-11-27T01:00:56.654Z,12.90
2022-11-27T01:02:27.947Z,10.37
2022-11-27T01:03:59.131Z,10.82
2022-11-27T01:05:30.785Z,11.53
2022-11-27T01:07:07.014Z,11.51
2022-11-27T01:08:38.255Z,10.80
2022-11-27T01:10:10.025Z,8.95
2022-11-27T01:11:41.368Z,9.15
2022-11-27T01:13:12.573Z,10.65
2022-11-27T01:14:43.852Z,10.82
2022-11-27T01:16:15.315Z,10.61
2022-11-27T01:17:46.614Z,8.82
2022-11-27T01:19:17.955Z,10.08
2022-11-27T01:20:49.414Z,9.08
2022-11-27T01:22:20.663Z,9.45
2022-11-27T01:23:51.898Z,10.83
2022-11-27T01:25:26.936Z,9.85
2022-11-27T01:26:58.558Z,10.80
2022-11-27T01:28:29.871Z,11.80
2022-11-27T01:30:01.246Z,9.32
2022-11-27T01:31:33.013Z,8.78
2022-11-27T01:33:04.207Z,7.81
2022-11-27T01:34:35.576Z,8.78
2022-11-27T01:36:07.229Z,8.71
2022-11-27T01:37:38.471Z,8.94
2022-11-27T01:39:09.708Z,9.10
2022-11-27T01:40:41.041Z,9.63
2022-11-27T01:42:12.700Z,10.28
2022-11-27T01:43:44.037Z,8.99
2022-11-27T01:45:15.372Z,9.76
2022-11-27T01:46:46.613Z,10.46
2022-11-27T01:48:17.903Z,9.19
2022-11-27T01:49:49.479Z,11.41
2022-11-27T01:51:20.783Z,10.00
2022-11-27T01:52:52.132Z,8.06
2022-11-27T01:54:23.698Z,8.72
2022-11-27T01:55:55.096Z,10.20
2022-11-27T01:57:26.346Z,8.80
2022-11-27T01:58:58.264Z,8.71
2022-11-27T02:00:29.496Z,8.75
2022-11-27T02:02:00.717Z,10.77
2022-11-27T02:03:38.769Z,9.10
2022-11-27T02:05:39.384Z,7.49
2022-11-27T02:07:11.229Z,8.56
2022-11-27T02:08:43.230Z,8.31
2022-11-27T02:10:15.347Z,10.71
2022-11-27T02:12:12.263Z,14.00
2022-11-27T02:13:44.408Z,10.55
2022-11-27T02:15:15.999Z,9.46
2022-11-27T02:16:47.579Z,8.76
2022-11-27T02:18:19.268Z,8.28
2022-11-27T02:19:50.981Z,9.24
2022-11-27T02:21:22.473Z,8.10
2022-11-27T02:22:54.001Z,9.53
2022-11-27T02:24:25.842Z,8.91
2022-11-27T02:25:57.405Z,9.12
2022-11-27T02:27:29.093Z,10.30
2022-11-27T02:29:05.912Z,9.30
2022-11-27T02:30:45.719Z,8.97
2022-11-27T02:32:25.979Z,8.88
2022-11-27T02:33:57.949Z,9.26
2022-11-27T02:35:29.891Z,8.87
2022-11-27T02:37:06.859Z,8.15
2022-11-27T02:38:43.723Z,9.52
2022-11-27T02:40:15.304Z,8.08
2022-11-27T02:41:47.178Z,8.44
2022-11-27T02:43:18.834Z,9.99
2022-11-27T02:44:50.928Z,8.71
2022-11-27T02:46:22.817Z,8.54
2022-11-27T02:47:54.697Z,10.10
2022-11-27T02:49:26.429Z,7.51
2022-11-27T02:50:59.193Z,9.74
2022-11-27T02:52:30.932Z,8.35
2022-11-27T02:54:02.533Z,8.47
2022-11-27T02:56:13.176Z,8.59
2022-11-27T02:57:44.568Z,9.56
2022-11-27T02:59:15.906Z,8.86
2022-11-27T03:00:47.261Z,9.47
2022-11-27T03:02:18.844Z,9.22
2022-11-27T03:04:06.114Z,9.25
2022-11-27T03:05:37.968Z,8.85
2022-11-27T03:07:09.889Z,10.29
2022-11-27T03:08:41.997Z,11.82
2022-11-27T03:10:13.839Z,10.98
2022-11-27T03:11:45.391Z,11.15
2022-11-27T03:13:16.816Z,10.67
2022-11-27T03:14:48.224Z,10.47
2022-11-27T03:16:24.954Z,11.77
2022-11-27T03:18:21.930Z,10.76
2022-11-27T03:19:53.694Z,10.37
2022-11-27T03:21:30.509Z,10.77
2022-11-27T03:23:37.980Z,10.02
2022-11-27T03:25:15.414Z,8.99
2022-11-27T03:26:57.100Z,9.16
2022-11-27T03:28:39.151Z,9.49
2022-11-27T03:30:37.705Z,9.28
2022-11-27T03:32:08.910Z,9.65
2022-11-27T03:33:40.475Z,8.69
2022-11-27T03:35:17.085Z,9.08
2022-11-27T03:36:48.359Z,9.45
2022-11-27T03:38:19.683Z,9.92
2022-11-27T03:39:51.695Z,9.99
2022-11-27T03:41:28.144Z,11.05
2022-11-27T03:42:59.574Z,9.44
2022-11-27T03:44:31.578Z,11.33
2022-11-27T03:46:02.912Z,9.87
2022-11-27T03:47:34.249Z,10.53
2022-11-27T03:49:06.118Z,10.26
2022-11-27T03:50:37.437Z,9.67
2022-11-27T03:52:08.618Z,9.66
2022-11-27T03:53:39.919Z,10.27
2022-11-27T03:55:11.275Z,10.54
2022-11-27T03:56:42.596Z,9.01
2022-11-27T03:58:14.293Z,10.41
2022-11-27T03:59:45.475Z,10.97
2022-11-27T04:01:16.797Z,11.60
2022-11-27T04:02:48.054Z,11.75
2022-11-27T04:04:19.513Z,10.97
2022-11-27T04:05:50.746Z,10.63
2022-11-27T04:07:22.023Z,10.36
2022-11-27T04:08:53.206Z,9.97
2022-11-27T04:10:24.974Z,11.23
2022-11-27T04:11:56.587Z,11.07
2022-11-27T04:13:27.870Z,9.32
2022-11-27T04:14:59.334Z,9.50
2022-11-27T04:16:31.030Z,11.78
2022-11-27T04:18:02.262Z,7.66
2022-11-27T04:19:33.538Z,9.41
2022-11-27T04:21:04.692Z,10.61
2022-11-27T04:22:35.990Z,9.56
2022-11-27T04:24:07.260Z,10.33
2022-11-27T04:25:38.526Z,11.80
2022-11-27T04:27:09.995Z,9.51
2022-11-27T04:28:41.212Z,9.46
2022-11-27T04:30:12.673Z,13.31
2022-11-27T04:31:44.253Z,11.40
2022-11-27T04:33:15.620Z,11.49
2022-11-27T04:34:47.106Z,12.37
2022-11-27T04:36:18.304Z,10.66
2022-11-27T04:37:49.835Z,12.38
2022-11-27T04:39:21.256Z,11.71
2022-11-27T04:40:52.885Z,12.76
2022-11-27T04:42:24.432Z,12.05
2022-11-27T04:43:56.952Z,13.80
2022-11-27T04:45:28.324Z,11.99
2022-11-27T04:46:59.972Z,11.27
2022-11-27T04:48:31.494Z,12.72
2022-11-27T04:50:02.892Z,12.04
2022-11-27T04:51:34.143Z,10.44
2022-11-27T04:53:10.416Z,10.55
2022-11-27T04:54:41.998Z,10.72
2022-11-27T04:56:13.437Z,11.02
2022-11-27T04:57:44.834Z,11.20
2022-11-27T04:59:16.187Z,10.90
2022-11-27T05:00:47.619Z,11.11
2022-11-27T05:02:19.042Z,12.68
2022-11-27T05:03:50.303Z,10.17
2022-11-27T05:05:21.542Z,12.15
2022-11-27T05:06:52.962Z,12.89
2022-11-27T05:08:24.333Z,12.37
2022-11-27T05:09:55.681Z,12.25
2022-11-27T05:11:27.013Z,11.23
2022-11-27T05:12:58.262Z,11.86
2022-11-27T05:14:29.568Z,11.29
2022-11-27T05:16:00.967Z,12.11
2022-11-27T05:17:32.495Z,10.94
2022-11-27T05:19:03.876Z,10.25
2022-11-27T05:20:35.083Z,9.60
2022-11-27T05:22:06.210Z,9.50
2022-11-27T05:23:37.554Z,10.46
2022-11-27T05:25:08.805Z,10.01
2022-11-27T05:26:40.214Z,11.06
2022-11-27T05:28:11.441Z,9.73
2022-11-27T05:29:42.794Z,9.99
2022-11-27T05:31:14.178Z,9.69
2022-11-27T05:32:45.490Z,8.42
2022-11-27T05:34:16.726Z,11.11
2022-11-27T05:35:47.986Z,9.68
2022-11-27T05:37:19.942Z,10.49
2022-11-27T05:38:51.354Z,9.87
2022-11-27T05:40:22.634Z,11.96
2022-11-27T05:41:54.075Z,10.20
2022-11-27T05:43:25.321Z,11.28
2022-11-27T05:44:58.556Z,9.80
2022-11-27T05:46:30.327Z,10.95
2022-11-27T05:48:01.919Z,11.30
2022-11-27T05:49:33.323Z,10.17
2022-11-27T05:51:04.737Z,11.58
2022-11-27T05:52:35.982Z,10.10
2022-11-27T05:54:07.519Z,9.11
2022-11-27T05:55:38.887Z,9.76
2022-11-27T05:57:10.212Z,11.00
2022-11-27T05:58:41.385Z,11.01
2022-11-27T06:00:12.728Z,10.36
2022-11-27T06:01:44.065Z,9.36
2022-11-27T06:03:15.483Z,12.32
2022-11-27T06:04:46.972Z,10.64
2022-11-27T06:06:18.234Z,10.82
2022-11-27T06:07:49.554Z,10.34
2022-11-27T06:09:20.825Z,9.69
2022-11-27T06:10:52.264Z,8.80
2022-11-27T06:12:23.611Z,10.05
2022-11-27T06:13:55.191Z,9.04
2022-11-27T06:15:26.698Z,11.66
2022-11-27T06:16:58.067Z,11.61
2022-11-27T06:18:29.310Z,11.42
2022-11-27T06:20:00.576Z,10.75
2022-11-27T06:21:31.881Z,10.52
2022-11-27T06:23:03.106Z,9.78
2022-11-27T06:24:34.479Z,12.57
2022-11-27T06:26:05.886Z,11.15
2022-11-27T06:27:37.273Z,10.78
2022-11-27T06:29:08.668Z,11.10
2022-11-27T06:30:39.887Z,10.89
2022-11-27T06:32:11.137Z,10.17
2022-11-27T06:33:42.567Z,11.78
2022-11-27T06:35:13.900Z,11.54
2022-11-27T06:36:45.393Z,10.51
2022-11-27T06:38:16.947Z,11.58
2022-11-27T06:39:49.732Z,10.74
2022-11-27T06:41:21.221Z,11.47
2022-11-27T06:42:52.617Z,10.73
2022-11-27T06:44:23.971Z,9.29
2022-11-27T06:45:55.500Z,11.76
2022-11-27T06:47:26.840Z,11.06
2022-11-27T06:48:58.181Z,10.61
2022-11-27T06:50:29.529Z,10.14
2022-11-27T06:52:01.016Z,10.94
2022-11-27T06:53:32.193Z,11.53
2022-11-27T06:55:03.956Z,10.34
2022-11-27T06:56:40.283Z,13.12
2022-11-27T06:58:11.608Z,10.91
2022-11-27T06:59:42.983Z,9.96
2022-11-27T07:01:14.432Z,10.98
2022-11-27T07:02:46.164Z,10.72
2022-11-27T07:04:19.189Z,12.29
2022-11-27T07:05:50.654Z,10.60
2022-11-27T07:07:27.166Z,12.00
2022-11-27T07:08:58.624Z,10.84
2022-11-27T07:10:36.264Z,11.69
2022-11-27T07:12:12.483Z,11.62
2022-11-27T07:13:43.760Z,10.18
2022-11-27T07:15:15.408Z,8.55
2022-11-27T07:16:46.797Z,10.93
2022-11-27T07:18:18.116Z,10.30
2022-11-27T07:19:54.968Z,11.00
2022-11-27T07:21:26.401Z,11.11
2022-11-27T07:22:57.973Z,10.16
2022-11-27T07:24:30.112Z,11.92
2022-11-27T07:26:01.957Z,11.51
2022-11-27T07:27:33.167Z,9.86
2022-11-27T07:29:04.380Z,11.78
2022-11-27T07:30:36.684Z,11.20
2022-11-27T07:32:08.016Z,9.93
2022-11-27T07:33:39.334Z,10.77
2022-11-27T07:35:10.504Z,9.39
2022-11-27T07:36:41.867Z,10.73
2022-11-27T07:38:13.079Z,9.34
2022-11-27T07:40:00.711Z,11.16
2022-11-27T07:41:34.105Z,10.39
2022-11-27T07:43:05.766Z,10.68
2022-11-27T07:44:36.982Z,10.10
2022-11-27T07:46:08.296Z,8.81
2022-11-27T07:47:39.805Z,10.29
2022-11-27T07:49:11.081Z,10.51
2022-11-27T07:50:42.403Z,8.94
2022-11-27T07:52:13.652Z,9.78
2022-11-27T07:53:45.133Z,10.67
2022-11-27T07:55:17.794Z,10.71
2022-11-27T07:56:49.039Z,8.81
2022-11-27T07:58:20.315Z,8.56
2022-11-27T07:59:52.514Z,9.50
2022-11-27T08:01:24.027Z,10.60
2022-11-27T08:02:55.342Z,10.62
2022-11-27T08:04:26.609Z,8.47
2022-11-27T08:05:57.862Z,9.27
2022-11-27T08:07:29.669Z,9.85
2022-11-27T08:09:21.172Z,10.37
2022-11-27T08:10:52.467Z,10.44
2022-11-27T08:12:23.735Z,9.33
2022-11-27T08:13:55.342Z,11.01
2022-11-27T08:15:26.681Z,11.07
2022-11-27T08:16:58.042Z,9.22
2022-11-27T08:18:29.268Z,8.34
2022-11-27T08:20:00.680Z,8.70
2022-11-27T08:21:32.091Z,9.56
2022-11-27T08:23:03.427Z,11.09
2022-11-27T08:24:34.938Z,10.21
2022-11-27T08:26:06.169Z,10.02
2022-11-27T08:27:37.392Z,9.33
2022-11-27T08:29:08.757Z,11.61
2022-11-27T08:30:40.067Z,9.17
2022-11-27T08:32:11.514Z,9.89
2022-11-27T08:33:52.909Z,8.87
2022-11-27T08:35:24.242Z,8.88
2022-11-27T08:36:55.770Z,12.26
2022-11-27T08:38:27.590Z,10.65
2022-11-27T08:40:34.547Z,8.26
2022-11-27T08:42:45.362Z,9.80
2022-11-27T08:44:16.661Z,9.09
2022-11-27T08:45:48.022Z,8.99
2022-11-27T08:47:19.567Z,8.68
2022-11-27T08:48:50.934Z,7.46
2022-11-27T08:50:22.168Z,8.09
2022-11-27T08:51:53.501Z,8.63
2022-11-27T08:53:24.867Z,8.88
2022-11-27T08:54:57.987Z,7.85
2022-11-27T08:56:29.489Z,9.29
2022-11-27T08:58:00.886Z,8.39
2022-11-27T08:59:32.351Z,7.61
2022-11-27T09:01:39.293Z,8.44
2022-11-27T09:05:35.980Z,9.65
2022-11-27T09:07:07.389Z,8.34
2022-11-27T09:09:09.027Z,9.77
2022-11-27T09:10:57.786Z,9.93
2022-11-27T09:12:36.404Z,8.21
2022-11-27T09:14:20.819Z,7.97
2022-11-27T09:17:54.073Z,7.65
2022-11-27T09:20:00.503Z,8.27
2022-11-27T09:21:46.562Z,7.62
2022-11-27T09:23:41.314Z,8.57
2022-11-27T09:25:34.843Z,7.55
2022-11-27T09:27:06.349Z,6.94
2022-11-27T09:28:38.236Z,6.66
2022-11-27T09:30:10.007Z,8.27
2022-11-27T09:31:41.514Z,7.08
2022-11-27T09:33:14.746Z,7.76
2022-11-27T09:34:46.431Z,8.16
2022-11-27T09:36:17.962Z,8.01
2022-11-27T09:37:49.480Z,9.98
2022-11-27T09:39:21.074Z,8.89
2022-11-27T09:40:52.729Z,8.20
2022-11-27T09:42:29.343Z,7.83
2022-11-27T09:44:10.692Z,7.34
2022-11-27T09:45:42.191Z,9.26
2022-11-27T09:47:41.032Z,8.91
2022-11-27T09:49:17.832Z,7.16
2022-11-27T09:50:54.113Z,6.39
2022-11-27T09:52:25.548Z,7.35
2022-11-27T09:54:01.933Z,7.60
2022-11-27T09:55:33.162Z,7.54
2022-11-27T09:57:04.443Z,8.90
2022-11-27T09:58:40.685Z,8.00
2022-11-27T10:00:12.590Z,7.88
2022-11-27T10:01:49.266Z,8.26
2022-11-27T10:03:21.808Z,7.02
2022-11-27T10:05:16.314Z,7.58
2022-11-27T10:06:49.348Z,6.98
2022-11-27T10:08:41.609Z,6.54
2022-11-27T10:10:13.063Z,7.82
2022-11-27T10:11:44.581Z,7.84
2022-11-27T10:13:21.128Z,7.85
2022-11-27T10:15:20.116Z,6.93
2022-11-27T10:17:01.472Z,7.93
2022-11-27T10:18:50.527Z,6.04
2022-11-27T10:21:02.766Z,6.96
2022-11-27T10:22:39.130Z,6.86
2022-11-27T10:24:10.386Z,6.60
2022-11-27T10:26:21.792Z,7.03
2022-11-27T10:27:53.400Z,12.49
2022-11-27T10:29:24.809Z,9.28
2022-11-27T10:33:44.159Z,6.14
2022-11-27T10:35:24.871Z,6.89
2022-11-27T10:36:56.112Z,6.76
2022-11-27T10:38:27.431Z,6.23
2022-11-27T10:39:58.875Z,5.35
2022-11-27T10:41:48.620Z,5.97
2022-11-27T10:43:20.628Z,6.96
2022-11-27T10:44:51.945Z,6.26
2022-11-27T10:46:23.288Z,6.13
2022-11-27T10:47:54.630Z,6.87
2022-11-27T10:49:26.041Z,5.99
2022-11-27T10:50:57.774Z,6.14
2022-11-27T10:52:29.123Z,5.97
2022-11-27T10:54:00.630Z,6.92
2022-11-27T10:55:33.115Z,6.09
2022-11-27T10:57:04.506Z,6.98
2022-11-27T10:58:35.936Z,5.20
2022-11-27T11:00:07.214Z,4.56
2022-11-27T11:01:38.561Z,6.12
2022-11-27T11:03:10.116Z,7.41
2022-11-27T11:04:41.614Z,7.80
2022-11-27T11:06:21.465Z,6.64
2022-11-27T11:07:54.292Z,5.59
2022-11-27T11:09:25.610Z,6.87
2022-11-27T11:10:57.082Z,7.48
2022-11-27T11:12:28.338Z,5.12
2022-11-27T11:13:59.731Z,5.12
2022-11-27T11:15:30.998Z,6.20
2022-11-27T11:17:02.304Z,5.75
2022-11-27T11:18:33.745Z,7.13
2022-11-27T11:20:05.322Z,6.66
2022-11-27T11:21:36.679Z,4.64
2022-11-27T11:23:07.853Z,4.24
2022-11-27T11:24:39.831Z,4.75
2022-11-27T11:26:11.404Z,7.15
2022-11-27T11:27:42.905Z,6.12
2022-11-27T11:29:14.204Z,5.46
2022-11-27T11:30:45.810Z,6.70
2022-11-27T11:32:22.101Z,5.91
2022-11-27T11:33:53.522Z,4.71
2022-11-27T11:35:24.977Z,4.13
2022-11-27T11:36:57.370Z,5.44
2022-11-27T11:38:28.643Z,5.63
2022-11-27T11:39:59.977Z,4.90
2022-11-27T11:41:31.380Z,5.21
2022-11-27T11:43:02.893Z,6.40
2022-11-27T11:44:34.132Z,6.58
2022-11-27T11:46:05.490Z,6.51
2022-11-27T11:47:36.832Z,6.68
2022-11-27T11:49:08.128Z,7.76
2022-11-27T11:50:39.454Z,8.41
2022-11-27T11:52:10.848Z,6.31
2022-11-27T11:53:42.115Z,4.85
2022-11-27T11:55:13.525Z,4.68
2022-11-27T11:56:44.880Z,4.50
2022-11-27T11:58:16.223Z,6.63
2022-11-27T11:59:47.617Z,5.22
2022-11-27T12:01:26.792Z,4.84
2022-11-27T12:02:58.397Z,5.36
2022-11-27T12:04:29.801Z,5.25
2022-11-27T12:06:01.143Z,4.17
2022-11-27T12:07:32.488Z,4.08
2022-11-27T12:09:03.985Z,4.84
2022-11-27T12:10:40.404Z,5.82
2022-11-27T12:12:11.860Z,4.15
2022-11-27T12:13:43.391Z,5.16
2022-11-27T12:15:14.949Z,5.12
2022-11-27T12:16:46.771Z,5.64
2022-11-27T12:18:18.158Z,5.27
2022-11-27T12:19:49.402Z,4.10
2022-11-27T12:21:20.837Z,5.50
2022-11-27T12:22:52.335Z,4.52
2022-11-27T12:24:24.012Z,5.04
2022-11-27T12:25:55.315Z,4.76
2022-11-27T12:27:26.648Z,4.49
2022-11-27T12:28:59.549Z,4.38
2022-11-27T12:30:31.426Z,4.61
2022-11-27T12:32:02.790Z,4.80
2022-11-27T12:33:35.484Z,4.51
2022-11-27T12:35:06.895Z,3.92
2022-11-27T12:36:43.289Z,4.02
2022-11-27T12:38:14.607Z,4.92
2022-11-27T12:39:45.949Z,4.22
2022-11-27T12:41:17.492Z,4.80
2022-11-27T12:42:48.801Z,6.83
2022-11-27T12:44:20.046Z,7.02
2022-11-27T12:45:51.381Z,5.07
2022-11-27T12:47:22.748Z,4.72
2022-11-27T12:48:54.081Z,4.59
2022-11-27T12:50:25.333Z,3.95
2022-11-27T12:51:56.751Z,4.36
2022-11-27T12:53:28.125Z,4.33
2022-11-27T12:54:59.649Z,5.29
2022-11-27T12:56:31.107Z,4.51
2022-11-27T12:58:02.486Z,4.65
2022-11-27T12:59:33.880Z,10.64
2022-11-27T13:01:05.421Z,7.25
2022-11-27T13:02:41.775Z,4.52
2022-11-27T13:04:13.146Z,5.27
2022-11-27T13:05:44.394Z,3.78
2022-11-27T13:07:15.752Z,4.18
2022-11-27T13:08:52.087Z,5.01
2022-11-27T13:10:23.882Z,4.78
2022-11-27T13:11:55.318Z,5.44
2022-11-27T13:13:26.979Z,4.73
2022-11-27T13:15:02.279Z,3.27
2022-11-27T13:16:33.645Z,5.26
2022-11-27T13:18:05.254Z,4.86
2022-11-27T13:19:36.923Z,4.37
2022-11-27T13:21:08.216Z,5.14
2022-11-27T13:22:39.559Z,4.70
2022-11-27T13:24:10.890Z,4.24
2022-11-27T13:25:42.235Z,4.50
2022-11-27T13:27:13.760Z,5.87
2022-11-27T13:28:45.114Z,4.58
2022-11-27T13:30:16.361Z,4.43
2022-11-27T13:31:47.785Z,3.82
2022-11-27T13:33:19.223Z,4.81
2022-11-27T13:34:50.674Z,5.30
2022-11-27T13:36:22.093Z,4.42
2022-11-27T13:37:53.445Z,4.66
2022-11-27T13:39:24.990Z,4.96
2022-11-27T13:40:56.657Z,6.70
2022-11-27T13:42:28.115Z,5.28
2022-11-27T13:43:59.472Z,5.76
2022-11-27T13:45:30.943Z,5.85
2022-11-27T13:47:02.303Z,4.50
2022-11-27T13:48:33.591Z,4.47
2022-11-27T13:50:04.975Z,4.90
2022-11-27T13:51:36.574Z,6.14
2022-11-27T13:53:07.996Z,4.54
2022-11-27T13:54:39.458Z,3.99
2022-11-27T13:56:10.807Z,4.79
2022-11-27T13:57:42.211Z,4.43
2022-11-27T13:59:13.460Z,4.66
2022-11-27T14:00:45.082Z,5.82
2022-11-27T14:02:16.533Z,4.85
2022-11-27T14:03:48.202Z,5.17
2022-11-27T14:05:19.682Z,5.05
2022-11-27T14:06:51.935Z,4.39
2022-11-27T14:08:25.984Z,5.05
2022-11-27T14:09:59.130Z,4.25
2022-11-27T14:11:30.570Z,3.81
2022-11-27T14:13:01.963Z,4.00
2022-11-27T14:14:33.481Z,4.46
2022-11-27T14:16:05.130Z,4.41
2022-11-27T14:17:36.486Z,4.21
2022-11-27T14:19:09.477Z,5.17
2022-11-27T14:20:41.027Z,4.42
2022-11-27T14:22:12.360Z,4.42
2022-11-27T14:23:43.643Z,3.53
2022-11-27T14:25:15.177Z,3.90
2022-11-27T14:26:51.501Z,4.39
2022-11-27T14:28:22.864Z,4.63
2022-11-27T14:29:54.191Z,4.99
2022-11-27T14:31:25.624Z,4.48
2022-11-27T14:32:57.276Z,4.63
2022-11-27T14:34:28.616Z,4.50
2022-11-27T14:35:59.978Z,5.50
2022-11-27T14:37:31.515Z,5.92
2022-11-27T14:39:03.042Z,4.63
2022-11-27T14:40:34.916Z,4.48
2022-11-27T14:42:06.418Z,4.22
2022-11-27T14:43:38.998Z,21.74
2022-11-27T14:45:10.206Z,28.43
2022-11-27T14:46:41.769Z,10.79
2022-11-27T14:48:13.117Z,6.08
2022-11-27T14:49:44.420Z,5.48
2022-11-27T14:51:16.356Z,6.16
2022-11-27T14:52:47.670Z,5.73
2022-11-27T14:54:19.074Z,6.11
2022-11-27T14:55:50.558Z,5.85
2022-11-27T14:57:21.818Z,6.19
2022-11-27T14:58:53.267Z,5.33
2022-11-27T15:00:24.846Z,4.72
2022-11-27T15:01:56.301Z,4.86
2022-11-27T15:03:27.786Z,5.18
2022-11-27T15:05:04.174Z,5.55
2022-11-27T15:06:35.441Z,5.29
2022-11-27T15:08:06.914Z,6.63
2022-11-27T15:09:38.218Z,5.43
2022-11-27T15:11:09.508Z,5.10
2022-11-27T15:12:40.905Z,6.10
2022-11-27T15:14:12.252Z,5.84
2022-11-27T15:15:43.578Z,4.21
2022-11-27T15:17:14.972Z,4.79
2022-11-27T15:18:46.515Z,5.14
2022-11-27T15:20:17.829Z,6.99
2022-11-27T15:21:49.177Z,6.16
2022-11-27T15:23:20.887Z,5.76
2022-11-27T15:24:52.326Z,5.42
2022-11-27T15:26:25.272Z,7.59
2022-11-27T15:27:56.771Z,7.21
2022-11-27T15:29:28.294Z,5.92
2022-11-27T15:30:59.582Z,5.86
2022-11-27T15:32:30.997Z,8.06
2022-11-27T15:34:02.267Z,7.44
2022-11-27T15:35:33.515Z,4.81
2022-11-27T15:37:04.901Z,6.40
2022-11-27T15:38:36.141Z,8.38
2022-11-27T15:40:07.478Z,5.03
2022-11-27T15:41:43.507Z,5.72
2022-11-27T15:43:15.014Z,6.13
2022-11-27T15:44:46.344Z,6.83
2022-11-27T15:46:18.715Z,7.84
2022-11-27T15:47:50.314Z,9.02
2022-11-27T15:49:21.757Z,12.55
2022-11-27T15:50:53.071Z,12.43
2022-11-27T15:52:24.446Z,12.31
2022-11-27T15:53:55.980Z,11.36
2022-11-27T15:55:28.694Z,9.87
2022-11-27T15:56:59.960Z,9.83
2022-11-27T15:58:31.355Z,7.88
2022-11-27T16:00:02.639Z,9.92
2022-11-27T16:01:33.923Z,9.63
2022-11-27T16:03:05.260Z,7.24
2022-11-27T16:04:36.632Z,7.73
2022-11-27T16:06:08.154Z,7.59
2022-11-27T16:07:39.483Z,7.08
2022-11-27T16:09:10.827Z,6.19
2022-11-27T16:10:42.135Z,7.21
2022-11-27T16:12:13.433Z,6.34
2022-11-27T16:13:44.886Z,8.99
2022-11-27T16:15:16.186Z,7.28
2022-11-27T16:16:47.597Z,6.85
2022-11-27T16:18:18.883Z,6.72
2022-11-27T16:19:50.377Z,6.56
2022-11-27T16:21:27.991Z,5.99
2022-11-27T16:23:00.829Z,6.63
2022-11-27T16:24:32.102Z,5.73
2022-11-27T16:26:03.564Z,6.05
2022-11-27T16:27:34.805Z,6.70
2022-11-27T16:29:06.093Z,6.60
2022-11-27T16:30:37.558Z,6.47
2022-11-27T16:32:08.919Z,7.04
2022-11-27T16:33:40.322Z,7.89
2022-11-27T16:35:11.622Z,5.99
2022-11-27T16:36:42.936Z,7.11
2022-11-27T16:38:19.218Z,6.84
2022-11-27T16:39:50.465Z,7.10
2022-11-27T16:41:21.975Z,6.07
2022-11-27T16:42:53.355Z,5.81
2022-11-27T16:44:24.635Z,7.14
2022-11-27T16:45:56.201Z,7.37
2022-11-27T16:47:33.342Z,7.29
2022-11-27T16:49:05.003Z,5.60
2022-11-27T16:50:36.494Z,6.73
2022-11-27T16:52:07.888Z,6.53
2022-11-27T16:53:39.213Z,6.08
2022-11-27T16:55:10.471Z,5.26
2022-11-27T16:56:41.695Z,5.57
2022-11-27T16:58:14.080Z,5.65
2022-11-27T16:59:45.890Z,5.35
2022-11-27T17:01:17.430Z,7.03
2022-11-27T17:02:48.999Z,7.24
2022-11-27T17:04:20.350Z,7.40
2022-11-27T17:05:51.771Z,6.71
2022-11-27T17:07:23.155Z,6.32
2022-11-27T17:08:54.583Z,6.26
2022-11-27T17:10:25.920Z,7.41
2022-11-27T17:11:57.325Z,7.10
2022-11-27T17:13:28.938Z,5.57
2022-11-27T17:15:00.210Z,6.44
2022-11-27T17:16:31.888Z,6.45
2022-11-27T17:18:03.198Z,7.01
2022-11-27T17:19:35.716Z,7.33
2022-11-27T17:21:07.214Z,6.48
2022-11-27T17:22:38.518Z,6.43
2022-11-27T17:24:14.732Z,6.24
2022-11-27T17:25:47.411Z,6.95
2022-11-27T17:27:18.725Z,7.14
2022-11-27T17:29:12.972Z,6.65
2022-11-27T17:30:44.439Z,7.64
2022-11-27T17:32:16.402Z,7.71
2022-11-27T17:33:48.184Z,6.31
2022-11-27T17:35:19.531Z,6.25
2022-11-27T17:36:50.832Z,6.67
2022-11-27T17:38:22.210Z,6.69
2022-11-27T17:39:53.516Z,6.31
2022-11-27T17:41:24.784Z,7.59
2022-11-27T17:42:55.987Z,5.45
2022-11-27T17:44:27.573Z,5.47
2022-11-27T17:45:59.003Z,6.96
2022-11-27T17:47:30.251Z,7.10
2022-11-27T17:49:01.742Z,6.71
2022-11-27T17:50:33.092Z,5.66
2022-11-27T17:52:06.541Z,7.61
2022-11-27T17:53:38.233Z,6.21
2022-11-27T17:55:09.442Z,5.97
2022-11-27T17:56:40.715Z,5.36
2022-11-27T17:58:12.173Z,5.64
2022-11-27T17:59:43.706Z,4.61
2022-11-27T18:01:15.120Z,6.17
2022-11-27T18:02:46.481Z,5.57
2022-11-27T18:04:22.777Z,5.77
2022-11-27T18:05:54.083Z,6.01
2022-11-27T18:07:30.406Z,6.70
2022-11-27T18:09:06.749Z,5.93
2022-11-27T18:10:38.180Z,5.03
2022-11-27T18:12:09.524Z,6.30
2022-11-27T18:13:40.741Z,5.69
2022-11-27T18:15:12.202Z,5.51
2022-11-27T18:16:43.443Z,5.82
2022-11-27T18:18:14.705Z,5.55
2022-11-27T18:19:46.002Z,5.42
2022-11-27T18:21:18.527Z,5.38
2022-11-27T18:22:50.174Z,5.37
2022-11-27T18:24:23.414Z,4.97
2022-11-27T18:25:55.068Z,4.83
2022-11-27T18:27:26.349Z,6.01
2022-11-27T18:28:57.666Z,4.67
2022-11-27T18:30:29.251Z,5.43
2022-11-27T18:32:01.088Z,4.83
2022-11-27T18:33:37.556Z,5.09
2022-11-27T18:35:19.554Z,4.78
2022-11-27T18:36:51.139Z,5.44
2022-11-27T18:38:22.430Z,4.66
2022-11-27T18:39:53.743Z,5.62
2022-11-27T18:41:30.101Z,5.33
2022-11-27T18:43:01.530Z,5.32
2022-11-27T18:44:32.880Z,5.69
2022-11-27T18:46:04.533Z,5.55
2022-11-27T18:47:35.875Z,5.51
2022-11-27T18:49:07.270Z,4.88
2022-11-27T18:50:38.766Z,4.74
2022-11-27T18:52:15.095Z,4.22
2022-11-27T18:53:46.367Z,5.45
2022-11-27T18:55:17.849Z,5.89
2022-11-27T18:56:49.163Z,4.18
2022-11-27T18:58:20.498Z,4.81
2022-11-27T18:59:51.836Z,4.99
2022-11-27T19:01:23.375Z,4.97
2022-11-27T19:02:54.890Z,4.87
2022-11-27T19:04:26.195Z,4.89
2022-11-27T19:05:57.463Z,5.23
2022-11-27T19:07:28.720Z,5.66
2022-11-27T19:08:59.988Z,5.59
2022-11-27T19:10:31.405Z,5.15
2022-11-27T19:12:02.745Z,4.96
2022-11-27T19:13:34.189Z,5.75
2022-11-27T19:15:05.573Z,4.72
2022-11-27T19:16:37.136Z,4.90
2022-11-27T19:18:08.523Z,5.46
2022-11-27T19:19:54.967Z,4.76
2022-11-27T19:21:26.773Z,5.03
2022-11-27T19:22:58.057Z,5.57
2022-11-27T19:24:29.632Z,4.49
2022-11-27T19:26:01.042Z,6.29
2022-11-27T19:27:37.409Z,5.35
2022-11-27T19:29:08.858Z,5.07
2022-11-27T19:30:40.693Z,6.78
2022-11-27T19:32:27.414Z,5.70
2022-11-27T19:33:58.945Z,4.72
2022-11-27T19:35:31.523Z,5.48
2022-11-27T19:37:02.923Z,5.17
2022-11-27T19:38:34.193Z,6.13
2022-11-27T19:40:05.695Z,5.62
2022-11-27T19:41:36.954Z,6.52
2022-11-27T19:43:08.327Z,5.58
2022-11-27T19:44:39.745Z,5.48
2022-11-27T19:46:11.402Z,7.40
2022-11-27T19:47:43.030Z,5.32
2022-11-27T19:49:14.300Z,5.34
2022-11-27T19:50:50.883Z,6.90
2022-11-27T19:52:22.135Z,6.92
2022-11-27T19:53:53.381Z,5.72
2022-11-27T19:55:24.756Z,5.37
2022-11-27T19:56:56.782Z,6.19
2022-11-27T19:58:28.359Z,4.95
2022-11-27T20:00:00.187Z,6.04
2022-11-27T20:01:32.006Z,6.08
2022-11-27T20:03:03.727Z,7.39
2022-11-27T20:04:35.179Z,8.12
2022-11-27T20:06:06.709Z,5.60
2022-11-27T20:07:38.441Z,6.13
2022-11-27T20:09:09.887Z,5.46
2022-11-27T20:10:41.505Z,5.76
2022-11-27T20:12:12.993Z,5.65
2022-11-27T20:13:44.302Z,7.50
2022-11-27T20:15:15.824Z,7.82
2022-11-27T20:16:47.324Z,5.52
2022-11-27T20:18:18.996Z,6.87
2022-11-27T20:19:50.296Z,6.21
2022-11-27T20:21:21.880Z,8.00
2022-11-27T20:22:53.228Z,7.14
2022-11-27T20:24:24.532Z,7.22
2022-11-27T20:25:56.425Z,6.81
2022-11-27T20:27:27.767Z,7.46
2022-11-27T20:28:59.088Z,7.98
2022-11-27T20:30:31.158Z,7.36
2022-11-27T20:32:02.473Z,5.92
2022-11-27T20:33:33.748Z,6.25